Time;durP1;ratioP1;P1;durP2;ratioP2;P2;SDS_P1;SDS_P2;PMS_P1;PMS_P2;Temp;Humidity;BMP_temperature;BMP_pressure;BME280_temperature;BME280_humidity;BME280_pressure;Samples;Min_cycle;Max_cycle;Signal;HPM_P1;HPM_P2
2024/04/01 00:01:03;;;;;;;9.40;8.40;;;;;;;10.92;100.00;99602.25;6133319;28;20255;-80
2024/04/01 00:04:25;;;;;;;10.83;8.67;;;;;;;10.89;100.00;99596.34;6132758;28;20519;-80
2024/04/01 00:07:47;;;;;;;9.13;8.00;;;;;;;10.87;100.00;99591.13;6114464;28;20235;-81
2024/04/01 00:11:07;;;;;;;7.17;6.40;;;;;;;10.76;100.00;99582.53;6115886;28;20243;-78
2024/04/01 00:14:29;;;;;;;7.87;7.07;;;;;;;10.72;100.00;99592.78;6134376;28;20711;-80
2024/04/01 00:17:49;;;;;;;7.97;7.27;;;;;;;10.65;100.00;99599.03;6130466;28;20701;-80
2024/04/01 00:21:12;;;;;;;18.20;8.63;;;;;;;10.63;100.00;99601.91;6128802;28;20577;-79
2024/04/01 00:24:32;;;;;;;9.07;8.13;;;;;;;10.59;100.00;99594.31;6132928;28;23222;-78
2024/04/01 00:27:52;;;;;;;8.23;7.57;;;;;;;10.49;100.00;99597.19;6119513;28;20239;-80
2024/04/01 00:31:14;;;;;;;8.63;7.77;;;;;;;10.57;100.00;99605.28;6132916;28;20235;-78
2024/04/01 00:34:34;;;;;;;7.10;6.47;;;;;;;10.54;100.00;99624.47;6117060;28;20494;-78
2024/04/01 00:37:56;;;;;;;8.77;7.97;;;;;;;10.45;100.00;99682.88;6117275;28;20247;-78
2024/04/01 00:41:17;;;;;;;8.07;7.27;;;;;;;9.91;100.00;99722.88;6125836;28;20232;-79
2024/04/01 00:44:38;;;;;;;8.40;7.50;;;;;;;9.76;100.00;99693.03;6096921;28;20259;-81
2024/04/01 00:47:59;;;;;;;8.57;7.67;;;;;;;9.99;100.00;99675.28;6103321;28;20232;-80
2024/04/01 00:51:21;;;;;;;10.10;7.93;;;;;;;9.97;100.00;99665.69;6125024;28;20680;-80
2024/04/01 00:54:42;;;;;;;9.13;7.87;;;;;;;10.11;100.00;99665.09;6119279;28;20231;-79
2024/04/01 00:58:04;;;;;;;10.37;8.03;;;;;;;10.10;100.00;99642.72;6130753;28;20235;-80
2024/04/01 01:01:25;;;;;;;10.17;9.10;;;;;;;10.21;100.00;99628.09;6128491;28;20232;-80
2024/04/01 01:04:46;;;;;;;9.73;8.73;;;;;;;10.23;100.00;99640.41;6111519;28;20236;-78
2024/04/01 01:08:07;;;;;;;8.70;7.73;;;;;;;10.27;100.00;99630.13;6141893;28;20695;-79
2024/04/01 01:11:30;;;;;;;9.67;8.73;;;;;;;10.20;100.00;99635.34;6125684;28;20231;-79
2024/04/01 01:14:50;;;;;;;9.50;8.67;;;;;;;10.21;100.00;99636.19;6137063;28;20232;-80
2024/04/01 01:18:11;;;;;;;9.90;8.97;;;;;;;9.94;100.00;99628.31;6129377;28;20604;-79
2024/04/01 01:21:31;;;;;;;9.53;8.60;;;;;;;10.05;100.00;99636.09;6116292;28;20230;-79
2024/04/01 01:24:53;;;;;;;11.00;9.60;;;;;;;10.09;100.00;99643.72;6134275;28;20232;-80
2024/04/01 01:28:13;;;;;;;13.40;11.03;;;;;;;10.16;100.00;99639.38;6117315;28;20235;-80
2024/04/01 01:31:39;;;;;;;10.77;9.70;;;;;;;10.17;100.00;99637.53;6115994;28;20617;-79
2024/04/01 01:35:00;;;;;;;10.87;9.87;;;;;;;10.25;100.00;99624.06;6118849;28;20873;-80
2024/04/01 01:38:20;;;;;;;11.90;10.23;;;;;;;10.24;100.00;99608.94;6136026;28;20860;-81
2024/04/01 01:41:42;;;;;;;13.60;10.93;;;;;;;10.17;100.00;99603.38;6115744;28;20749;-79
2024/04/01 01:45:04;;;;;;;13.07;10.67;;;;;;;10.10;100.00;99598.75;6134483;28;20318;-80
2024/04/01 01:48:25;;;;;;;12.10;10.90;;;;;;;10.02;100.00;99598.72;6129241;28;20246;-80
2024/04/01 01:51:46;;;;;;;11.37;10.13;;;;;;;10.01;100.00;99607.84;6119532;28;20235;-80
2024/04/01 01:55:07;;;;;;;14.37;9.60;;;;;;;9.98;100.00;99605.44;6125981;28;20235;-79
2024/04/01 01:58:29;;;;;;;12.90;11.47;;;;;;;9.94;100.00;99594.19;6099418;28;20329;-81
2024/04/01 02:01:49;;;;;;;14.63;11.53;;;;;;;9.98;100.00;99584.75;6133499;28;20227;-81
2024/04/01 02:05:10;;;;;;;12.37;10.47;;;;;;;9.99;100.00;99572.97;6115361;28;20231;-79
2024/04/01 02:08:30;;;;;;;14.13;10.97;;;;;;;9.90;100.00;99565.91;6134230;28;20330;-80
2024/04/01 02:11:51;;;;;;;11.50;9.93;;;;;;;9.93;100.00;99560.19;6125786;28;22019;-80
2024/04/01 02:15:14;;;;;;;11.37;10.23;;;;;;;9.92;100.00;99550.44;6112147;28;20490;-80
2024/04/01 02:18:35;;;;;;;15.47;10.13;;;;;;;9.87;100.00;99550.06;6126315;28;21136;-80
2024/04/01 02:21:56;;;;;;;12.17;10.97;;;;;;;9.75;100.00;99551.38;6126522;28;20243;-81
2024/04/01 02:25:17;;;;;;;13.80;12.20;;;;;;;9.78;100.00;99556.47;6128168;28;20600;-79
2024/04/01 02:28:38;;;;;;;12.27;10.17;;;;;;;9.88;100.00;99550.91;6130491;28;20234;-81
2024/04/01 02:32:00;;;;;;;11.17;10.07;;;;;;;9.82;100.00;99555.13;6120611;28;20665;-81
2024/04/01 02:35:20;;;;;;;11.80;10.27;;;;;;;9.83;100.00;99554.09;6121615;28;20511;-81
2024/04/01 02:38:41;;;;;;;16.17;12.00;;;;;;;9.83;100.00;99558.63;6115375;28;20493;-80
2024/04/01 02:42:00;;;;;;;11.60;10.23;;;;;;;9.77;100.00;99567.34;6121373;28;20601;-80
2024/04/01 02:45:21;;;;;;;12.63;10.73;;;;;;;9.76;100.00;99566.53;6097655;28;20951;-79
2024/04/01 02:48:42;;;;;;;14.70;11.50;;;;;;;9.77;100.00;99567.34;6128143;28;20521;-80
2024/04/01 02:52:04;;;;;;;12.67;11.23;;;;;;;9.80;100.00;99567.03;6109995;28;20260;-81
2024/04/01 02:55:24;;;;;;;13.37;12.07;;;;;;;9.79;100.00;99573.41;6104211;28;20247;-79
2024/04/01 02:58:46;;;;;;;13.37;11.53;;;;;;;9.71;100.00;99576.09;6123876;28;20413;-79
2024/04/01 03:02:08;;;;;;;12.97;11.77;;;;;;;9.79;100.00;99574.28;6121625;28;20228;-79
2024/04/01 03:05:29;;;;;;;13.37;11.90;;;;;;;9.79;100.00;99568.03;6125274;28;20259;-80
2024/04/01 03:08:50;;;;;;;13.77;12.00;;;;;;;9.78;100.00;99555.59;6123808;28;20235;-80
2024/04/01 03:12:11;;;;;;;13.73;11.70;;;;;;;9.77;100.00;99561.97;6124208;28;20243;-77
2024/04/01 03:15:31;;;;;;;16.37;12.10;;;;;;;9.78;100.00;99548.38;6116399;28;20254;-80
2024/04/01 03:18:52;;;;;;;14.23;12.53;;;;;;;9.75;100.00;99540.63;6126581;28;20621;-80
2024/04/01 03:22:13;;;;;;;17.50;13.23;;;;;;;9.78;100.00;99545.69;6098782;28;20370;-80
2024/04/01 03:25:33;;;;;;;15.00;12.47;;;;;;;9.78;100.00;99534.94;6112528;28;20235;-80
2024/04/01 03:28:53;;;;;;;14.10;12.77;;;;;;;9.89;100.00;99518.44;6128700;28;20235;-79
2024/04/01 03:32:16;;;;;;;13.20;11.67;;;;;;;9.83;100.00;99527.19;6105016;28;20504;-80
2024/04/01 03:35:37;;;;;;;15.30;12.13;;;;;;;9.77;100.00;99521.59;6113108;28;20513;-79
2024/04/01 03:38:59;;;;;;;15.00;11.97;;;;;;;9.74;100.00;99516.56;6130639;28;20322;-80
2024/04/01 03:42:20;;;;;;;14.20;12.80;;;;;;;9.73;100.00;99504.09;6112213;28;20354;-81
2024/04/01 03:45:41;;;;;;;15.73;12.97;;;;;;;9.60;100.00;99508.13;6132755;28;20266;-80
2024/04/01 03:49:01;;;;;;;13.33;12.07;;;;;;;9.62;100.00;99507.94;6114210;28;20263;-80
2024/04/01 03:52:22;;;;;;;15.40;12.50;;;;;;;9.59;100.00;99506.44;6109619;28;20230;-81
2024/04/01 03:55:44;;;;;;;18.10;13.07;;;;;;;9.45;100.00;99512.44;6130318;28;20528;-80
2024/04/01 03:59:04;;;;;;;14.07;12.67;;;;;;;9.40;100.00;99505.88;6116769;28;20231;-79
2024/04/01 04:02:25;;;;;;;12.67;11.27;;;;;;;9.41;100.00;99502.16;6125663;28;20239;-80
2024/04/01 04:05:46;;;;;;;14.57;13.23;;;;;;;9.38;100.00;99484.53;6115910;28;20235;-80
2024/04/01 04:09:15;;;;;;;15.20;13.63;;;;;;;9.46;100.00;99487.22;6135412;28;20318;-80
2024/04/01 04:12:37;;;;;;;14.00;12.60;;;;;;;9.44;100.00;99475.81;6128901;28;20600;-79
2024/04/01 04:15:58;;;;;;;14.47;12.70;;;;;;;9.34;100.00;99471.56;6125386;28;20231;-79
2024/04/01 04:19:19;;;;;;;15.10;12.43;;;;;;;9.29;100.00;99473.88;6132728;28;20368;-80
2024/04/01 04:22:40;;;;;;;14.43;11.80;;;;;;;9.33;100.00;99478.78;6129368;28;20235;-79
2024/04/01 04:26:01;;;;;;;16.43;13.20;;;;;;;9.36;100.00;99478.47;6129371;28;20239;-80
2024/04/01 04:29:23;;;;;;;16.47;14.83;;;;;;;9.39;100.00;99482.66;6132309;28;20227;-79
2024/04/01 04:32:44;;;;;;;15.13;13.17;;;;;;;9.31;100.00;99488.84;6128833;28;20232;-80
2024/04/01 04:36:06;;;;;;;13.60;12.17;;;;;;;9.38;100.00;99486.38;6129847;28;20228;-78
2024/04/01 04:39:27;;;;;;;18.27;15.13;;;;;;;9.38;100.00;99478.28;6123615;28;20700;-80
2024/04/01 04:42:48;;;;;;;18.20;13.40;;;;;;;9.46;100.00;99489.06;6130126;28;20235;-80
2024/04/01 04:46:12;;;;;;;16.87;15.17;;;;;;;9.46;100.00;99478.31;6127117;28;20320;-79
2024/04/01 04:49:32;;;;;;;20.00;14.40;;;;;;;9.38;100.00;99465.69;6132960;28;20601;-80
2024/04/01 04:52:53;;;;;;;15.77;14.07;;;;;;;9.40;100.00;99469.06;6111951;28;20239;-80
2024/04/01 04:56:14;;;;;;;15.77;11.87;;;;;;;9.42;100.00;99466.19;6132733;28;20227;-80
2024/04/01 04:59:35;;;;;;;15.90;14.23;;;;;;;9.43;100.00;99471.41;6122292;28;20293;-80
2024/04/01 05:02:57;;;;;;;17.43;15.33;;;;;;;9.36;100.00;99473.09;6122930;28;20330;-80
2024/04/01 05:06:18;;;;;;;14.33;13.03;;;;;;;9.41;100.00;99476.09;6118271;28;20595;-80
2024/04/01 05:09:38;;;;;;;18.20;14.23;;;;;;;9.37;100.00;99469.38;6119981;28;20239;-79
2024/04/01 05:12:59;;;;;;;15.67;14.20;;;;;;;9.39;100.00;99464.66;6120161;28;20235;-80
2024/04/01 05:16:20;;;;;;;17.63;15.73;;;;;;;9.40;100.00;99439.47;6106673;28;21087;-80
2024/04/01 05:19:43;;;;;;;20.70;15.07;;;;;;;9.30;100.00;99451.38;6118314;28;20235;-80
2024/04/01 05:23:04;;;;;;;18.03;13.47;;;;;;;9.32;100.00;99469.03;6111740;28;20235;-80
2024/04/01 05:26:25;;;;;;;16.70;15.10;;;;;;;9.26;100.00;99480.41;6128772;28;20236;-79
2024/04/01 05:29:46;;;;;;;16.73;15.03;;;;;;;9.09;100.00;99476.00;6131595;28;20232;-78
2024/04/01 05:33:07;;;;;;;15.67;13.97;;;;;;;9.24;100.00;99474.34;6127476;28;20223;-80
2024/04/01 05:36:31;;;;;;;14.77;13.23;;;;;;;9.27;100.00;99465.97;6127631;28;20235;-81
2024/04/01 05:39:52;;;;;;;17.93;13.97;;;;;;;9.39;100.00;99464.66;6138744;28;20305;-80
2024/04/01 05:43:13;;;;;;;15.60;13.17;;;;;;;9.44;100.00;99465.03;6131131;28;20231;-78
2024/04/01 05:46:34;;;;;;;17.20;14.83;;;;;;;9.50;100.00;99469.75;6112740;28;20240;-79
2024/04/01 05:49:54;;;;;;;15.77;14.37;;;;;;;9.41;100.00;99473.41;6112484;28;20338;-79
2024/04/01 05:53:16;;;;;;;15.43;13.80;;;;;;;9.41;100.00;99467.19;6137356;28;21692;-79
2024/04/01 05:56:37;;;;;;;16.53;14.70;;;;;;;9.49;100.00;99470.75;6127596;28;20529;-78
2024/04/01 05:59:58;;;;;;;16.60;14.80;;;;;;;9.46;100.00;99460.34;6130558;28;20239;-77
2024/04/01 06:03:19;;;;;;;17.60;15.47;;;;;;;9.53;100.00;99465.91;6126485;28;20227;-78
2024/04/01 06:06:41;;;;;;;15.03;13.53;;;;;;;9.56;100.00;99465.56;6108005;28;20234;-80
2024/04/01 06:10:03;;;;;;;17.73;15.90;;;;;;;9.60;100.00;99472.28;6128903;28;20235;-80
2024/04/01 06:13:24;;;;;;;15.70;14.10;;;;;;;9.60;100.00;99456.16;6114849;28;20490;-79
2024/04/01 06:16:43;;;;;;;18.27;16.13;;;;;;;9.58;100.00;99460.84;6121929;28;20239;-80
2024/04/01 06:20:06;;;;;;;14.57;13.00;;;;;;;9.73;100.00;99463.75;6125188;28;20383;-80
2024/04/01 06:23:27;;;;;;;17.30;14.37;;;;;;;9.83;100.00;99456.34;6130070;28;20374;-80
2024/04/01 06:26:49;;;;;;;16.87;14.23;;;;;;;9.68;100.00;99452.66;6126643;28;20227;-80
2024/04/01 06:30:10;;;;;;;16.50;14.10;;;;;;;9.73;100.00;99445.75;6113230;28;20266;-79
2024/04/01 06:33:33;;;;;;;15.60;14.10;;;;;;;9.79;100.00;99437.03;6129612;28;21385;-79
2024/04/01 06:36:53;;;;;;;31.20;27.73;;;;;;;9.61;100.00;99441.72;6124519;28;20781;-79
2024/04/01 06:40:15;;;;;;;15.80;14.10;;;;;;;9.68;100.00;99439.19;6112710;28;20231;-80
2024/04/01 06:43:41;;;;;;;17.57;15.77;;;;;;;9.78;100.00;99440.72;6122976;28;20245;-79
2024/04/01 06:47:02;;;;;;;15.07;13.67;;;;;;;9.66;100.00;99450.97;6115436;28;20238;-80
2024/04/01 06:50:22;;;;;;;23.63;17.57;;;;;;;9.69;100.00;99447.09;6114567;28;21959;-81
2024/04/01 06:53:43;;;;;;;15.73;13.87;;;;;;;9.40;100.00;99449.38;6116373;28;20231;-80
2024/04/01 06:57:03;;;;;;;19.47;15.73;;;;;;;9.58;100.00;99445.56;6125014;28;20227;-80
2024/04/01 07:00:25;;;;;;;20.87;17.00;;;;;;;9.72;100.00;99448.63;6127379;28;20721;-78
2024/04/01 07:03:46;;;;;;;19.77;17.37;;;;;;;9.64;100.00;99455.66;6116795;28;20228;-80
2024/04/01 07:07:07;;;;;;;18.57;16.57;;;;;;;9.58;100.00;99467.09;6131295;28;20720;-80
2024/04/01 07:10:29;;;;;;;18.83;16.83;;;;;;;9.80;100.00;99464.78;6118169;28;20240;-80
2024/04/01 07:13:49;;;;;;;19.77;17.73;;;;;;;9.90;100.00;99460.06;6133615;28;20323;-79
2024/04/01 07:17:11;;;;;;;18.23;16.43;;;;;;;10.00;100.00;99466.13;6108797;28;20322;-80
2024/04/01 07:20:31;;;;;;;28.77;25.73;;;;;;;9.96;100.00;99462.94;6113716;28;21373;-79
2024/04/01 07:23:52;;;;;;;22.73;20.50;;;;;;;10.08;100.00;99468.84;6126539;28;20746;-79
2024/04/01 07:27:13;;;;;;;18.03;16.27;;;;;;;10.03;100.00;99472.06;6124585;28;20250;-79
2024/04/01 07:30:33;;;;;;;17.60;15.83;;;;;;;10.15;100.00;99473.44;6115909;28;20247;-79
2024/04/01 07:33:55;;;;;;;17.47;15.67;;;;;;;10.09;100.00;99463.31;6119524;28;20508;-78
2024/04/01 07:37:16;;;;;;;16.53;15.00;;;;;;;10.10;100.00;99454.22;6126995;28;20243;-78
2024/04/01 07:40:37;;;;;;;17.43;15.83;;;;;;;10.01;100.00;99463.28;6127764;28;20254;-78
2024/04/01 07:43:57;;;;;;;18.87;16.50;;;;;;;9.93;100.00;99449.00;6122176;28;20246;-78
2024/04/01 07:47:18;;;;;;;18.97;17.20;;;;;;;9.93;100.00;99449.00;6121650;28;20247;-78
2024/04/01 07:50:41;;;;;;;18.27;16.47;;;;;;;9.95;100.00;99449.66;6122934;28;20240;-80
2024/04/01 07:54:01;;;;;;;17.93;16.23;;;;;;;10.10;100.00;99450.66;6121104;28;20240;-79
2024/04/01 07:57:23;;;;;;;17.77;16.00;;;;;;;10.17;100.00;99468.72;6117083;28;20239;-78
2024/04/01 08:00:44;;;;;;;19.20;15.70;;;;;;;9.88;100.00;99456.72;6124216;28;20227;-78
2024/04/01 08:04:05;;;;;;;16.13;14.53;;;;;;;9.89;100.00;99455.72;6134936;28;20621;-78
2024/04/01 08:07:27;;;;;;;19.53;17.47;;;;;;;10.10;100.00;99454.22;6125282;28;20542;-79
2024/04/01 08:10:48;;;;;;;18.70;16.83;;;;;;;10.27;100.00;99441.59;6101118;28;20238;-78
2024/04/01 08:14:09;;;;;;;18.57;16.77;;;;;;;10.38;100.00;99420.56;6121941;28;20514;-77
2024/04/01 08:17:30;;;;;;;18.70;16.73;;;;;;;10.42;100.00;99415.66;6112828;28;20227;-78
2024/04/01 08:20:51;;;;;;;17.73;16.00;;;;;;;10.34;100.00;99424.63;6124090;28;20232;-77
2024/04/01 08:24:13;;;;;;;18.70;16.70;;;;;;;9.99;100.00;99424.09;6129054;28;20286;-77
2024/04/01 08:27:34;;;;;;;19.77;17.70;;;;;;;10.05;100.00;99416.19;6126297;28;20240;-76
2024/04/01 08:30:54;;;;;;;23.00;16.83;;;;;;;10.16;100.00;99405.09;6113929;28;20243;-77
2024/04/01 08:34:15;;;;;;;17.30;15.60;;;;;;;10.33;100.00;99406.75;6133895;28;20235;-79
2024/04/01 08:37:35;;;;;;;21.60;18.33;;;;;;;10.45;100.00;99393.78;6123721;28;20329;-78
2024/04/01 08:41:02;;;;;;;19.60;17.57;;;;;;;10.51;100.00;99386.84;6124134;28;20669;-78
2024/04/01 08:44:23;;;;;;;19.47;17.50;;;;;;;10.57;100.00;99386.16;6132454;28;20262;-77
2024/04/01 08:47:46;;;;;;;19.30;17.30;;;;;;;10.57;100.00;99391.56;6111842;28;20227;-78
2024/04/01 08:51:09;;;;;;;17.43;15.47;;;;;;;10.58;100.00;99398.59;6127552;28;20239;-78
2024/04/01 08:54:30;;;;;;;17.33;15.70;;;;;;;10.41;100.00;99430.97;6130691;28;20231;-78
2024/04/01 08:57:54;;;;;;;20.33;18.20;;;;;;;10.06;100.00;99482.47;6126743;28;20512;-78
2024/04/01 09:01:15;;;;;;;21.30;18.33;;;;;;;9.59;100.00;99511.84;6111159;28;20239;-79
2024/04/01 09:04:37;;;;;;;19.83;17.83;;;;;;;9.62;100.00;99492.66;6117886;28;20227;-78
2024/04/01 09:08:00;;;;;;;20.50;18.43;;;;;;;9.87;100.00;99484.63;6134992;28;20297;-78
2024/04/01 09:11:22;;;;;;;20.90;18.97;;;;;;;10.14;100.00;99473.56;6111766;28;20255;-78
2024/04/01 09:14:44;;;;;;;21.33;19.13;;;;;;;10.44;100.00;99476.44;6143552;28;20235;-79
2024/04/01 09:18:05;;;;;;;21.20;18.73;;;;;;;10.72;100.00;99466.13;6133833;28;20232;-79
2024/04/01 09:21:26;;;;;;;19.27;16.93;;;;;;;10.77;100.00;99457.53;6120729;28;20334;-79
2024/04/01 09:24:46;;;;;;;20.00;17.87;;;;;;;10.86;100.00;99460.03;6122279;28;20309;-78
2024/04/01 09:28:07;;;;;;;20.90;18.87;;;;;;;10.98;100.00;99458.66;6141292;28;20247;-78
2024/04/01 09:31:30;;;;;;;21.63;19.03;;;;;;;11.00;100.00;99467.41;6134259;28;20234;-78
2024/04/01 09:34:57;;;;;;;21.97;19.47;;;;;;;11.07;100.00;99456.75;6131333;28;20514;-79
2024/04/01 09:38:18;;;;;;;19.23;17.37;;;;;;;11.17;100.00;99444.75;6136526;28;20354;-79
2024/04/01 09:41:39;;;;;;;21.20;16.67;;;;;;;11.40;100.00;99430.47;6125699;28;20235;-79
2024/04/01 09:44:59;;;;;;;18.27;16.03;;;;;;;11.51;100.00;99419.28;6119689;29;20227;-80
2024/04/01 09:48:23;;;;;;;22.60;18.37;;;;;;;11.44;100.00;99399.41;6129448;28;20239;-79
2024/04/01 09:51:44;;;;;;;20.57;18.53;;;;;;;11.44;100.00;99386.78;6114140;28;20235;-80
2024/04/01 09:55:07;;;;;;;25.87;19.53;;;;;;;11.55;100.00;99382.84;6130769;28;20227;-78
2024/04/01 09:59:03;;;;;;;20.07;17.83;;;;;;;11.63;100.00;99362.03;6125941;28;20227;-79
2024/04/01 10:02:56;;;;;;;18.07;16.37;;;;;;;11.77;100.00;99344.22;6120929;28;20617;-79
2024/04/01 10:06:54;;;;;;;21.27;18.93;;;;;;;11.53;100.00;99347.09;6112981;28;20609;-78
2024/04/01 10:10:53;;;;;;;18.90;16.90;;;;;;;11.53;100.00;99349.78;6128145;28;20243;-79
2024/04/01 10:14:50;;;;;;;18.40;16.53;;;;;;;11.60;100.00;99348.88;6132389;28;20648;-79
2024/04/01 10:18:26;;;;;;;23.50;18.67;;;;;;;11.69;100.00;99347.00;6112246;28;20231;-79
2024/04/01 10:22:20;;;;;;;17.53;15.73;;;;;;;11.76;100.00;99343.41;6104817;28;20665;-78
2024/04/01 10:26:04;;;;;;;16.37;14.77;;;;;;;11.85;100.00;99336.03;6112259;28;20235;-79
2024/04/01 10:29:54;;;;;;;18.23;16.23;;;;;;;11.73;100.00;99327.56;6130945;28;20247;-79
2024/04/01 10:33:48;;;;;;;18.27;16.40;;;;;;;11.89;100.00;99329.28;6067551;28;20224;-79
2024/04/01 10:37:39;;;;;;;19.07;17.13;;;;;;;11.89;100.00;99323.88;6113427;28;20605;-80
2024/04/01 10:41:32;;;;;;;17.13;15.40;;;;;;;11.90;100.00;99321.00;6100780;28;20325;-80
2024/04/01 10:45:28;;;;;;;16.37;14.87;;;;;;;12.16;100.00;99314.34;6131089;28;20231;-79
2024/04/01 10:49:14;;;;;;;18.33;16.53;;;;;;;12.19;100.00;99303.16;6130545;28;20234;-79
2024/04/01 10:52:55;;;;;;;21.20;15.47;;;;;;;12.20;100.00;99299.44;6111271;28;20252;-79
2024/04/01 10:57:02;;;;;;;17.80;15.90;;;;;;;12.14;100.00;99292.06;6130310;28;20227;-79
2024/04/01 11:00:52;;;;;;;20.50;16.07;;;;;;;12.23;100.00;99274.72;6110108;28;20231;-79
2024/04/01 11:04:41;;;;;;;16.50;14.80;;;;;;;12.02;100.00;99275.47;6114942;28;20232;-79
2024/04/01 11:08:19;;;;;;;15.33;13.87;;;;;;;12.09;100.00;99267.47;6128998;28;20227;-79
2024/04/01 11:11:52;;;;;;;15.40;12.67;;;;;;;12.17;100.00;99260.13;6121423;28;20558;-78
2024/04/01 11:15:16;;;;;;;17.93;14.87;;;;;;;12.36;100.00;99262.25;6127490;28;20219;-78
2024/04/01 11:19:02;;;;;;;15.50;13.90;;;;;;;12.36;100.00;99256.00;6112362;28;20239;-79
2024/04/01 11:22:41;;;;;;;16.80;14.97;;;;;;;12.42;100.00;99248.00;6120770;28;20673;-80
2024/04/01 11:26:18;;;;;;;15.00;13.40;;;;;;;12.63;100.00;99244.50;6124040;28;20227;-80
2024/04/01 11:30:00;;;;;;;15.50;13.40;;;;;;;12.59;100.00;99244.06;6128344;28;20319;-80
2024/04/01 11:33:31;;;;;;;17.80;14.93;;;;;;;12.23;100.00;99243.16;6126028;28;20255;-78
2024/04/01 11:37:07;;;;;;;14.50;12.50;;;;;;;12.58;100.00;99228.84;6123483;28;20231;-80
2024/04/01 11:40:31;;;;;;;19.30;13.80;;;;;;;12.71;100.00;99230.88;6130760;28;20325;-79
2024/04/01 11:43:53;;;;;;;15.40;13.60;;;;;;;12.74;100.00;99225.94;6134718;28;20513;-78
2024/04/01 11:47:16;;;;;;;12.10;11.00;;;;;;;12.73;100.00;99216.16;6111855;28;20235;-79
2024/04/01 11:50:38;;;;;;;14.03;12.70;;;;;;;12.66;100.00;99198.19;6131629;28;20227;-79
2024/04/01 11:53:58;;;;;;;14.17;12.70;;;;;;;12.69;100.00;99198.63;6137555;28;20270;-79
2024/04/01 11:57:23;;;;;;;16.47;14.13;;;;;;;12.50;100.00;99196.53;6131099;28;20231;-78
2024/04/01 12:00:50;;;;;;;11.60;10.47;;;;;;;11.99;100.00;99192.94;6115006;28;20224;-79
2024/04/01 12:04:20;;;;;;;16.67;12.87;;;;;;;12.01;100.00;99206.28;6128540;28;20246;-79
2024/04/01 12:07:40;;;;;;;13.03;10.70;;;;;;;11.93;100.00;99211.78;6125684;28;20231;-79
2024/04/01 12:11:05;;;;;;;12.07;10.87;;;;;;;12.29;100.00;99206.44;6122894;28;20259;-79
2024/04/01 12:14:26;;;;;;;13.23;12.13;;;;;;;12.56;100.00;99201.19;6134323;28;20613;-79
2024/04/01 12:17:47;;;;;;;13.77;12.10;;;;;;;12.68;100.00;99205.06;6129173;28;20223;-79
2024/04/01 12:21:09;;;;;;;16.20;12.47;;;;;;;12.61;100.00;99214.97;6130577;28;20246;-79
2024/04/01 12:24:32;;;;;;;13.17;11.87;;;;;;;12.36;100.00;99218.19;6131534;28;20227;-79
2024/04/01 12:27:53;;;;;;;14.73;11.57;;;;;;;12.08;100.00;99226.09;6115038;28;20236;-78
2024/04/01 12:31:15;;;;;;;15.00;13.47;;;;;;;12.19;100.00;99214.84;6124790;28;20250;-79
2024/04/01 12:34:36;;;;;;;19.43;11.83;;;;;;;12.22;100.00;99214.47;6116263;28;20700;-79
2024/04/01 12:38:03;;;;;;;12.60;11.43;;;;;;;12.45;100.00;99206.25;6128732;28;20232;-80
2024/04/01 12:41:27;;;;;;;15.73;12.00;;;;;;;12.68;100.00;99209.66;6115373;28;20224;-80
2024/04/01 12:44:50;;;;;;;13.07;11.50;;;;;;;12.68;100.00;99205.06;6133456;28;20236;-79
2024/04/01 12:48:13;;;;;;;11.83;10.70;;;;;;;12.79;100.00;99201.00;6128336;28;20243;-80
2024/04/01 12:51:35;;;;;;;12.80;11.50;;;;;;;12.81;100.00;99205.22;6127137;28;20501;-80
2024/04/01 12:55:09;;;;;;;12.77;11.43;;;;;;;12.58;100.00;99211.78;6123715;28;21047;-80
2024/04/01 12:58:59;;;;;;;12.83;11.43;;;;;;;12.28;100.00;99226.38;6132597;28;20231;-79
2024/04/01 13:02:49;;;;;;;12.50;11.30;;;;;;;11.93;100.00;99239.59;6125733;28;20224;-79
2024/04/01 13:06:27;;;;;;;14.90;13.20;;;;;;;11.78;100.00;99236.06;6117741;28;20234;-80
2024/04/01 13:09:53;;;;;;;15.17;12.93;;;;;;;11.87;100.00;99244.91;6135924;28;20227;-79
2024/04/01 13:13:28;;;;;;;16.03;12.53;;;;;;;12.08;100.00;99250.41;6128316;28;20235;-78
2024/04/01 13:17:02;;;;;;;14.37;12.87;;;;;;;12.01;100.00;99263.00;6126913;28;20231;-78
2024/04/01 13:20:30;;;;;;;14.17;12.70;;;;;;;12.20;100.00;99283.22;6125125;28;20231;-78
2024/04/01 13:23:57;;;;;;;21.87;14.70;;;;;;;11.90;100.00;99294.00;6113855;28;20226;-78
2024/04/01 13:27:27;;;;;;;16.00;14.30;;;;;;;11.84;100.00;99305.53;6126033;28;21969;-77
2024/04/01 13:31:11;;;;;;;13.87;11.93;;;;;;;12.07;100.00;99312.72;6118583;28;20586;-80
2024/04/01 13:34:44;;;;;;;16.97;15.10;;;;;;;12.14;100.00;99311.81;6114514;28;20255;-78
2024/04/01 13:38:24;;;;;;;17.83;15.93;;;;;;;11.83;100.00;99328.13;6123159;28;20238;-77
2024/04/01 13:41:57;;;;;;;21.17;16.10;;;;;;;11.53;100.00;99336.28;6124415;28;20324;-78
2024/04/01 13:45:29;;;;;;;16.77;15.17;;;;;;;11.48;100.00;99338.69;6123015;28;20239;-74
2024/04/01 13:49:24;;;;;;;16.87;15.07;;;;;;;11.51;100.00;99351.81;6121406;28;20227;-75
2024/04/01 13:53:07;;;;;;;16.73;15.33;;;;;;;11.44;100.00;99359.78;6123025;28;20242;-75
2024/04/01 13:56:42;;;;;;;16.73;11.90;;;;;;;11.82;100.00;99368.81;6119301;28;20240;-79
2024/04/01 14:00:05;;;;;;;17.57;13.87;;;;;;;12.12;100.00;99365.16;6115771;28;20232;-78
2024/04/01 14:03:48;;;;;;;15.67;13.73;;;;;;;12.40;100.00;99362.72;6122697;28;20236;-78
2024/04/01 14:07:18;;;;;;;20.43;17.57;;;;;;;11.75;100.00;99359.75;6106183;28;20326;-76
2024/04/01 14:10:49;;;;;;;16.77;14.60;;;;;;;11.68;100.00;99365.03;6122316;28;20238;-75
2024/04/01 14:14:13;;;;;;;18.13;16.17;;;;;;;11.62;100.00;99359.50;6121150;28;20675;-75
2024/04/01 14:17:46;;;;;;;17.87;16.10;;;;;;;11.51;100.00;99362.63;6119057;28;20376;-75
2024/04/01 14:21:07;;;;;;;17.27;15.37;;;;;;;11.39;100.00;99358.66;6103937;28;20688;-75
2024/04/01 14:24:28;;;;;;;20.77;15.87;;;;;;;11.31;100.00;99358.69;6125627;28;20258;-75
2024/04/01 14:27:50;;;;;;;20.40;16.47;;;;;;;11.39;100.00;99364.06;6112959;28;20627;-76
2024/04/01 14:31:11;;;;;;;19.37;17.37;;;;;;;11.32;100.00;99368.47;6107519;28;20302;-75
2024/04/01 14:34:31;;;;;;;17.93;16.00;;;;;;;11.39;100.00;99356.78;6123795;28;20238;-76
2024/04/01 14:37:53;;;;;;;18.30;16.40;;;;;;;11.48;100.00;99357.56;6077999;28;20322;-75
2024/04/01 14:41:14;;;;;;;17.30;15.67;;;;;;;11.36;100.00;99364.41;6119637;28;21054;-76
2024/04/01 14:44:35;;;;;;;17.53;15.90;;;;;;;11.28;100.00;99371.50;6127750;28;20326;-76
2024/04/01 14:47:56;;;;;;;17.47;15.70;;;;;;;11.15;100.00;99368.56;6118475;28;20231;-75
2024/04/01 14:51:19;;;;;;;15.93;14.47;;;;;;;11.21;100.00;99375.97;6119343;28;20235;-75
2024/04/01 14:54:41;;;;;;;19.20;17.27;;;;;;;11.37;100.00;99376.88;6125572;28;20239;-76
2024/04/01 14:58:03;;;;;;;17.03;15.37;;;;;;;11.20;100.00;99385.06;6119578;28;20243;-76
2024/04/01 15:01:24;;;;;;;17.47;15.67;;;;;;;11.10;100.00;99379.03;6117157;28;20251;-76
2024/04/01 15:04:45;;;;;;;17.57;14.90;;;;;;;11.04;100.00;99387.84;6124276;28;20234;-76
2024/04/01 15:08:10;;;;;;;15.90;14.47;;;;;;;10.89;100.00;99386.06;6135106;28;20708;-74
2024/04/01 15:11:41;;;;;;;13.00;11.70;;;;;;;10.89;100.00;99388.75;6122077;28;20239;-74
2024/04/01 15:15:05;;;;;;;10.47;9.50;;;;;;;10.84;100.00;99396.53;6125702;28;20238;-72
2024/04/01 15:18:25;;;;;;;7.10;6.37;;;;;;;10.75;100.00;99401.09;6117799;28;20602;-74
2024/04/01 15:21:48;;;;;;;6.53;5.83;;;;;;;10.77;100.00;99398.22;6119044;28;20251;-72
2024/04/01 15:25:09;;;;;;;6.37;5.77;;;;;;;10.75;100.00;99395.69;6122928;28;20585;-72
2024/04/01 15:28:30;;;;;;;4.90;4.43;;;;;;;10.77;100.00;99393.69;6107258;28;20235;-72
2024/04/01 15:31:54;;;;;;;5.20;4.77;;;;;;;10.72;100.00;99389.84;6120416;28;20227;-74
2024/04/01 15:35:14;;;;;;;4.23;3.93;;;;;;;10.75;100.00;99411.03;6119886;28;20779;-71
2024/04/01 15:38:34;;;;;;;5.70;4.60;;;;;;;10.72;100.00;99398.72;6125529;28;21278;-72